Time;durP1;ratioP1;P1;durP2;ratioP2;P2;SDS_P1;SDS_P2;PMS_P1;PMS_P2;Temp;Humidity;BMP_temperature;BMP_pressure;BME280_temperature;BME280_humidity;BME280_pressure;Samples;Min_cycle;Max_cycle;Signal;HPM_P1;HPM_P2
2022/09/11 00:01:29;;;;;;;;;;;13.40;99.90;;;;;;4921635;29;19931;-72
2022/09/11 00:03:55;;;;;;;;;;;13.40;99.90;;;;;;4919492;29;19926;-71
2022/09/11 00:06:22;;;;;;;;;;;13.40;99.90;;;;;;4923125;29;20006;-72
2022/09/11 00:08:50;;;;;;;;;;;13.40;99.90;;;;;;4915202;29;20347;-72
2022/09/11 00:11:17;;;;;;;;;;;13.40;99.90;;;;;;4923102;29;19926;-72
2022/09/11 00:13:47;;;;;;;;;;;13.40;99.90;;;;;;4923269;29;20314;-72
2022/09/11 00:16:22;;;;;;;;;;;13.30;99.90;;;;;;4904916;29;19934;-72
2022/09/11 00:18:48;;;;;;;;;;;13.30;99.90;;;;;;4922706;29;20441;-72
2022/09/11 00:21:14;;;;;;;;;;;13.20;99.90;;;;;;4922453;29;19974;-71
2022/09/11 00:23:40;;;;;;;;;;;13.20;99.90;;;;;;4903211;29;20374;-72
2022/09/11 00:26:05;;;;;;;;;;;13.10;99.90;;;;;;4904061;29;19919;-72
2022/09/11 00:28:31;;;;;;;;;;;13.10;99.90;;;;;;4905376;29;19919;-71
2022/09/11 00:30:58;;;;;;;;;;;13.00;99.90;;;;;;4903482;29;20704;-71
2022/09/11 00:33:23;;;;;;;;;;;13.00;99.90;;;;;;4918482;29;19945;-71
2022/09/11 00:35:59;;;;;;;;;;;12.90;99.90;;;;;;4921388;29;19963;-72
2022/09/11 00:38:26;;;;;;;;;;;13.00;99.90;;;;;;4918397;29;19986;-71
2022/09/11 00:40:52;;;;;;;;;;;13.00;99.90;;;;;;4918419;29;19919;-72
2022/09/11 00:43:18;;;;;;;;;;;12.90;99.90;;;;;;4922398;29;19930;-72
2022/09/11 00:45:45;;;;;;;;;;;12.90;99.90;;;;;;4920154;29;19923;-71
2022/09/11 00:48:13;;;;;;;;;;;12.90;99.90;;;;;;4920906;29;19919;-72
2022/09/11 00:50:42;;;;;;;;;;;12.90;99.90;;;;;;4920659;29;20386;-71
2022/09/11 00:53:10;;;;;;;;;;;12.80;99.90;;;;;;4921221;29;19985;-71
2022/09/11 00:55:36;;;;;;;;;;;12.80;99.90;;;;;;4921464;29;20079;-71
2022/09/11 00:58:03;;;;;;;;;;;12.80;99.90;;;;;;4921178;29;19923;-72
2022/09/11 01:00:29;;;;;;;;;;;12.80;99.90;;;;;;4904726;29;20131;-71
2022/09/11 01:02:55;;;;;;;;;;;12.80;99.90;;;;;;4919564;29;19958;-72
2022/09/11 01:05:22;;;;;;;;;;;12.90;99.90;;;;;;4918073;29;20295;-72
2022/09/11 01:07:49;;;;;;;;;;;13.00;99.90;;;;;;4903944;29;20576;-72
2022/09/11 01:10:15;;;;;;;;;;;12.90;99.90;;;;;;4920061;29;19923;-72
2022/09/11 01:12:51;;;;;;;;;;;12.90;99.90;;;;;;4922537;29;19923;-72
2022/09/11 01:15:21;;;;;;;;;;;12.90;99.90;;;;;;4921722;29;20375;-72
2022/09/11 01:17:47;;;;;;;;;;;12.90;99.90;;;;;;4904050;29;19929;-72
2022/09/11 01:20:18;;;;;;;;;;;13.00;99.90;;;;;;4921403;29;20306;-72
2022/09/11 01:22:49;;;;;;;;;;;13.00;99.90;;;;;;4920886;29;19958;-72
2022/09/11 01:25:16;;;;;;;;;;;13.00;99.90;;;;;;4921208;29;20319;-72
2022/09/11 01:27:49;;;;;;;;;;;12.90;99.90;;;;;;4922717;29;19922;-72
2022/09/11 01:30:22;;;;;;;;;;;12.80;99.90;;;;;;4921230;29;20061;-72
2022/09/11 01:32:50;;;;;;;;;;;12.80;99.90;;;;;;4917945;29;19997;-71
2022/09/11 01:35:31;;;;;;;;;;;12.70;99.90;;;;;;4902302;29;19986;-72
2022/09/11 01:37:59;;;;;;;;;;;12.70;99.90;;;;;;4917410;29;20511;-71
2022/09/11 01:40:31;;;;;;;;;;;12.60;99.90;;;;;;4921423;29;20074;-71
2022/09/11 01:43:03;;;;;;;;;;;12.60;99.90;;;;;;4921555;29;19919;-72
2022/09/11 01:45:30;;;;;;;;;;;12.60;99.90;;;;;;4917189;29;19923;-71
2022/09/11 01:47:57;;;;;;;;;;;12.50;99.90;;;;;;4920464;29;19952;-71
2022/09/11 01:50:23;;;;;;;;;;;12.40;99.90;;;;;;4905171;29;20469;-72
2022/09/11 01:52:57;;;;;;;;;;;12.30;99.90;;;;;;4919357;29;20025;-72
2022/09/11 01:55:34;;;;;;;;;;;12.30;99.90;;;;;;4902557;29;19925;-71
2022/09/11 01:58:26;;;;;;;;;;;12.30;99.90;;;;;;4918970;29;19926;-71
2022/09/11 02:00:54;;;;;;;;;;;12.30;99.90;;;;;;4908346;29;19952;-72
2022/09/11 02:03:23;;;;;;;;;;;12.20;99.90;;;;;;4917055;29;19945;-72
2022/09/11 02:06:04;;;;;;;;;;;12.20;99.90;;;;;;4921715;29;20014;-71
2022/09/11 02:08:35;;;;;;;;;;;12.30;99.90;;;;;;4919305;29;19919;-72
2022/09/11 02:11:04;;;;;;;;;;;12.30;99.90;;;;;;4919114;29;20021;-72
2022/09/11 02:13:29;;;;;;;;;;;12.30;99.90;;;;;;4920632;29;20521;-72
2022/09/11 02:15:59;;;;;;;;;;;12.30;99.90;;;;;;4915479;29;19954;-72
2022/09/11 02:18:28;;;;;;;;;;;12.30;99.90;;;;;;4917036;29;19923;-72
2022/09/11 02:20:54;;;;;;;;;;;12.30;99.90;;;;;;4915251;29;19915;-72
2022/09/11 02:23:19;;;;;;;;;;;12.30;99.90;;;;;;4897273;29;19929;-72
2022/09/11 02:25:46;;;;;;;;;;;12.30;99.90;;;;;;4907027;29;19921;-71
2022/09/11 02:28:12;;;;;;;;;;;12.40;99.90;;;;;;4920621;29;19973;-71
2022/09/11 02:30:39;;;;;;;;;;;12.40;99.90;;;;;;4907660;29;19942;-72
2022/09/11 02:33:04;;;;;;;;;;;12.50;99.90;;;;;;4918482;29;19925;-72
2022/09/11 02:35:38;;;;;;;;;;;12.50;99.90;;;;;;4922051;29;20009;-72
2022/09/11 02:38:17;;;;;;;;;;;12.50;99.90;;;;;;4919542;29;19919;-72
2022/09/11 02:40:49;;;;;;;;;;;12.60;99.90;;;;;;4920919;29;19973;-71
2022/09/11 02:43:26;;;;;;;;;;;12.60;99.90;;;;;;4920966;29;19919;-71
2022/09/11 02:45:58;;;;;;;;;;;12.60;99.90;;;;;;4903121;29;20572;-72
2022/09/11 02:48:33;;;;;;;;;;;12.60;99.90;;;;;;4921401;29;19918;-72
2022/09/11 02:51:18;;;;;;;;;;;12.60;99.90;;;;;;4917361;29;19938;-71
2022/09/11 02:54:02;;;;;;;;;;;12.50;99.90;;;;;;4920843;29;19915;-72
2022/09/11 02:56:46;;;;;;;;;;;12.50;99.90;;;;;;4922259;29;19926;-72
2022/09/11 02:59:17;;;;;;;;;;;12.40;99.90;;;;;;4923017;29;19914;-72
2022/09/11 03:01:50;;;;;;;;;;;12.40;99.90;;;;;;4921054;29;20243;-72
2022/09/11 03:04:17;;;;;;;;;;;12.40;99.90;;;;;;4925696;29;19918;-72
2022/09/11 03:06:43;;;;;;;;;;;12.40;99.90;;;;;;4925986;29;20286;-72
2022/09/11 03:09:09;;;;;;;;;;;12.40;99.90;;;;;;4924616;29;19926;-72
2022/09/11 03:11:35;;;;;;;;;;;12.40;99.90;;;;;;4923177;29;20312;-71
2022/09/11 03:14:00;;;;;;;;;;;12.20;99.90;;;;;;4918736;29;20736;-72
2022/09/11 03:16:26;;;;;;;;;;;12.20;99.90;;;;;;4925647;29;19918;-72
2022/09/11 03:18:51;;;;;;;;;;;12.10;99.90;;;;;;4908169;29;19918;-73
2022/09/11 03:21:17;;;;;;;;;;;12.00;99.90;;;;;;4925431;29;20067;-72
2022/09/11 03:23:43;;;;;;;;;;;11.90;99.90;;;;;;4924214;29;19919;-73
2022/09/11 03:26:09;;;;;;;;;;;11.90;99.90;;;;;;4903677;29;19930;-73
2022/09/11 03:28:34;;;;;;;;;;;11.80;99.90;;;;;;4925195;29;19938;-73
2022/09/11 03:31:00;;;;;;;;;;;11.80;99.90;;;;;;4924855;29;19933;-73
2022/09/11 03:33:26;;;;;;;;;;;11.70;99.90;;;;;;4923754;29;20022;-72
2022/09/11 03:35:52;;;;;;;;;;;11.70;99.90;;;;;;4925800;29;19987;-72
2022/09/11 03:38:17;;;;;;;;;;;11.60;99.90;;;;;;4921446;29;19919;-72
2022/09/11 03:40:43;;;;;;;;;;;11.60;99.90;;;;;;4932603;29;19922;-73
2022/09/11 03:43:11;;;;;;;;;;;11.60;99.90;;;;;;4906700;29;19982;-72
2022/09/11 03:45:37;;;;;;;;;;;11.60;99.90;;;;;;4904774;29;19961;-73
2022/09/11 03:48:03;;;;;;;;;;;11.50;99.90;;;;;;4924195;29;20354;-73
2022/09/11 03:50:28;;;;;;;;;;;11.50;99.90;;;;;;4923779;29;20344;-73
2022/09/11 03:52:54;;;;;;;;;;;11.50;99.90;;;;;;4923436;29;19927;-72
2022/09/11 03:55:19;;;;;;;;;;;11.50;99.90;;;;;;4921684;29;19978;-73
2022/09/11 03:57:45;;;;;;;;;;;11.50;99.90;;;;;;4907293;29;19919;-73
2022/09/11 04:00:11;;;;;;;;;;;11.50;99.90;;;;;;4924187;29;20450;-73
2022/09/11 04:02:36;;;;;;;;;;;11.40;99.90;;;;;;4919988;29;20443;-74
2022/09/11 04:05:03;;;;;;;;;;;11.40;99.90;;;;;;4924689;29;19945;-73
2022/09/11 04:07:30;;;;;;;;;;;11.40;99.90;;;;;;4924877;29;19921;-73
2022/09/11 04:09:56;;;;;;;;;;;11.40;99.90;;;;;;4921229;29;19998;-73
2022/09/11 04:12:22;;;;;;;;;;;11.30;99.90;;;;;;4924462;29;19923;-72
2022/09/11 04:14:49;;;;;;;;;;;11.30;99.90;;;;;;4914294;29;19990;-72
2022/09/11 04:17:14;;;;;;;;;;;11.40;99.90;;;;;;4921149;29;19923;-73
2022/09/11 04:19:40;;;;;;;;;;;11.40;99.90;;;;;;4920366;29;19986;-73
2022/09/11 04:22:06;;;;;;;;;;;11.40;99.90;;;;;;4904417;29;20710;-72
2022/09/11 04:24:31;;;;;;;;;;;11.40;99.90;;;;;;4918610;29;19915;-73
2022/09/11 04:26:59;;;;;;;;;;;11.50;99.90;;;;;;4918652;29;20303;-72
2022/09/11 04:29:25;;;;;;;;;;;11.40;99.90;;;;;;4924168;29;20477;-72
2022/09/11 04:31:51;;;;;;;;;;;11.40;99.90;;;;;;4922211;29;19966;-73
2022/09/11 04:34:17;;;;;;;;;;;11.40;99.90;;;;;;4921479;29;19969;-73
2022/09/11 04:36:42;;;;;;;;;;;11.40;99.90;;;;;;4917973;29;19991;-73
2022/09/11 04:39:08;;;;;;;;;;;11.30;99.90;;;;;;4919526;29;19962;-73
2022/09/11 04:41:33;;;;;;;;;;;11.30;99.90;;;;;;4923433;29;19978;-73
2022/09/11 04:43:59;;;;;;;;;;;11.30;99.90;;;;;;4923079;29;20625;-73
2022/09/11 04:46:25;;;;;;;;;;;11.20;99.90;;;;;;4924104;29;19918;-73
2022/09/11 04:48:54;;;;;;;;;;;11.20;99.90;;;;;;4922965;29;19919;-73
2022/09/11 04:51:20;;;;;;;;;;;11.10;99.90;;;;;;4918074;29;19941;-73
2022/09/11 04:53:46;;;;;;;;;;;11.10;99.90;;;;;;4920754;29;19918;-73
2022/09/11 04:56:14;;;;;;;;;;;11.10;99.90;;;;;;4910822;29;20412;-73
2022/09/11 04:58:40;;;;;;;;;;;11.10;99.90;;;;;;4927498;29;19922;-73
2022/09/11 05:01:06;;;;;;;;;;;11.10;99.90;;;;;;4920899;29;19914;-73
2022/09/11 05:03:32;;;;;;;;;;;11.10;99.90;;;;;;4913442;29;20041;-73
2022/09/11 05:05:58;;;;;;;;;;;11.00;99.90;;;;;;4921558;29;20017;-73
2022/09/11 05:08:25;;;;;;;;;;;11.10;99.90;;;;;;4921234;29;19919;-73
2022/09/11 05:10:51;;;;;;;;;;;11.10;99.90;;;;;;4904007;29;19931;-73
2022/09/11 05:13:17;;;;;;;;;;;11.10;99.90;;;;;;4920959;29;19934;-73
2022/09/11 05:15:42;;;;;;;;;;;11.10;99.90;;;;;;4915453;29;19965;-73
2022/09/11 05:18:09;;;;;;;;;;;11.00;99.90;;;;;;4920347;29;19974;-73
2022/09/11 05:20:34;;;;;;;;;;;11.00;99.90;;;;;;4919973;29;19978;-73
2022/09/11 05:23:00;;;;;;;;;;;11.00;99.90;;;;;;4901510;29;20388;-72
2022/09/11 05:25:28;;;;;;;;;;;11.00;99.90;;;;;;4919093;29;20410;-73
2022/09/11 05:27:53;;;;;;;;;;;11.00;99.90;;;;;;4902317;29;20401;-73
2022/09/11 05:30:19;;;;;;;;;;;11.00;99.90;;;;;;4921679;29;19927;-73
2022/09/11 05:32:44;;;;;;;;;;;10.90;99.90;;;;;;4921600;29;20015;-73
2022/09/11 05:35:10;;;;;;;;;;;10.90;99.90;;;;;;4920268;29;19954;-73
2022/09/11 05:37:36;;;;;;;;;;;10.90;99.90;;;;;;4920815;29;19950;-73
2022/09/11 05:40:02;;;;;;;;;;;10.80;99.90;;;;;;4908232;29;19962;-73
2022/09/11 05:42:27;;;;;;;;;;;10.90;99.90;;;;;;4902661;29;19958;-73
2022/09/11 05:44:53;;;;;;;;;;;10.90;99.90;;;;;;4912381;29;19966;-73
2022/09/11 05:47:18;;;;;;;;;;;10.80;99.90;;;;;;4916264;29;19978;-73
2022/09/11 05:49:44;;;;;;;;;;;10.90;99.90;;;;;;4914044;29;19997;-73
2022/09/11 05:52:09;;;;;;;;;;;10.90;99.90;;;;;;4911301;29;19931;-74
2022/09/11 05:54:35;;;;;;;;;;;10.90;99.90;;;;;;4914794;29;20014;-73
2022/09/11 05:57:01;;;;;;;;;;;10.90;99.90;;;;;;4922028;29;19966;-73
2022/09/11 05:59:26;;;;;;;;;;;10.90;99.90;;;;;;4910501;29;20017;-73
2022/09/11 06:01:52;;;;;;;;;;;10.90;99.90;;;;;;4918352;29;19918;-73
2022/09/11 06:04:18;;;;;;;;;;;11.00;99.90;;;;;;4900039;29;19926;-72
2022/09/11 06:06:46;;;;;;;;;;;11.10;99.90;;;;;;4920663;29;20398;-73
2022/09/11 06:09:12;;;;;;;;;;;11.20;99.90;;;;;;4918853;29;20799;-72
2022/09/11 06:11:37;;;;;;;;;;;11.30;99.90;;;;;;4921095;29;19970;-72
2022/09/11 06:14:03;;;;;;;;;;;11.40;99.90;;;;;;4908972;29;20034;-73
2022/09/11 06:16:30;;;;;;;;;;;11.50;99.90;;;;;;4920566;29;20005;-73
2022/09/11 06:18:56;;;;;;;;;;;11.60;99.90;;;;;;4902026;29;20018;-73
2022/09/11 06:21:22;;;;;;;;;;;11.70;99.90;;;;;;4921683;29;20730;-72
2022/09/11 06:23:49;;;;;;;;;;;11.80;99.90;;;;;;4917467;29;20318;-73
2022/09/11 06:26:16;;;;;;;;;;;12.00;99.90;;;;;;4899213;29;19923;-72
2022/09/11 06:28:42;;;;;;;;;;;12.10;99.90;;;;;;4916527;29;19919;-72
2022/09/11 06:31:11;;;;;;;;;;;12.20;99.90;;;;;;4917402;29;19927;-73
2022/09/11 06:33:38;;;;;;;;;;;12.30;99.90;;;;;;4901401;29;19919;-72
2022/09/11 06:36:05;;;;;;;;;;;12.40;99.90;;;;;;4918788;29;19930;-72
2022/09/11 06:38:31;;;;;;;;;;;12.60;99.90;;;;;;4919273;29;19930;-72
2022/09/11 06:40:58;;;;;;;;;;;12.80;99.90;;;;;;4910578;29;19919;-72
2022/09/11 06:43:23;;;;;;;;;;;12.90;99.90;;;;;;4898457;29;19919;-72
2022/09/11 06:45:50;;;;;;;;;;;13.00;99.90;;;;;;4913288;29;20379;-72
2022/09/11 06:48:16;;;;;;;;;;;13.20;99.90;;;;;;4921623;29;19962;-73
2022/09/11 06:50:41;;;;;;;;;;;13.40;99.90;;;;;;4902797;29;19977;-72
2022/09/11 06:53:07;;;;;;;;;;;13.60;99.90;;;;;;4915640;29;20481;-71
2022/09/11 06:55:33;;;;;;;;;;;13.80;99.90;;;;;;4919012;29;19938;-72
2022/09/11 06:57:59;;;;;;;;;;;14.00;99.90;;;;;;4904691;29;20901;-72
2022/09/11 07:00:24;;;;;;;;;;;14.10;99.90;;;;;;4917790;29;19919;-73
2022/09/11 07:02:51;;;;;;;;;;;14.40;99.90;;;;;;4919840;29;20029;-71
2022/09/11 07:05:17;;;;;;;;;;;14.70;99.90;;;;;;4916805;29;19919;-72
2022/09/11 07:07:43;;;;;;;;;;;15.00;99.90;;;;;;4918960;29;19926;-72
2022/09/11 07:10:09;;;;;;;;;;;15.30;99.90;;;;;;4917014;29;20072;-72
2022/09/11 07:12:34;;;;;;;;;;;15.60;99.90;;;;;;4917547;29;19922;-72
2022/09/11 07:15:00;;;;;;;;;;;15.80;99.90;;;;;;4919007;29;19962;-72
2022/09/11 07:17:25;;;;;;;;;;;16.10;99.90;;;;;;4916969;29;20072;-72
2022/09/11 07:19:51;;;;;;;;;;;16.30;99.90;;;;;;4901349;29;19962;-72
2022/09/11 07:22:17;;;;;;;;;;;16.50;99.90;;;;;;4920125;29;19919;-71
2022/09/11 07:24:42;;;;;;;;;;;16.80;99.90;;;;;;4914484;29;20058;-73
2022/09/11 07:27:09;;;;;;;;;;;17.10;99.90;;;;;;4917559;29;20564;-72
2022/09/11 07:29:34;;;;;;;;;;;17.30;99.90;;;;;;4914223;29;20400;-73
2022/09/11 07:32:00;;;;;;;;;;;17.50;99.90;;;;;;4899292;29;20390;-71
2022/09/11 07:34:25;;;;;;;;;;;17.60;99.90;;;;;;4899832;29;20015;-70
2022/09/11 07:36:51;;;;;;;;;;;17.60;99.90;;;;;;4915135;29;19916;-70
2022/09/11 07:39:17;;;;;;;;;;;17.70;99.90;;;;;;4918444;29;19926;-70
2022/09/11 07:41:42;;;;;;;;;;;17.80;99.90;;;;;;4893572;29;19926;-70
2022/09/11 07:44:08;;;;;;;;;;;18.00;99.90;;;;;;4907677;29;20021;-71
2022/09/11 07:46:34;;;;;;;;;;;18.40;99.90;;;;;;4907028;29;21538;-72
2022/09/11 07:49:01;;;;;;;;;;;19.60;99.90;;;;;;4908320;29;19919;-72
2022/09/11 07:51:28;;;;;;;;;;;20.40;99.90;;;;;;4907353;29;19938;-73
2022/09/11 07:53:55;;;;;;;;;;;22.00;99.90;;;;;;4908171;29;19919;-73
2022/09/11 07:56:22;;;;;;;;;;;23.20;99.90;;;;;;4899940;29;19923;-72
2022/09/11 07:58:51;;;;;;;;;;;24.60;99.90;;;;;;4902974;29;20479;-72
2022/09/11 08:01:18;;;;;;;;;;;26.40;99.90;;;;;;4900329;29;19918;-72
2022/09/11 08:03:44;;;;;;;;;;;27.60;97.70;;;;;;4921017;29;19926;-73
2022/09/11 08:06:14;;;;;;;;;;;27.30;96.90;;;;;;4920065;29;19946;-73
2022/09/11 08:08:40;;;;;;;;;;;27.70;94.10;;;;;;4902571;29;19918;-73
2022/09/11 08:11:08;;;;;;;;;;;28.60;94.10;;;;;;4918760;29;19977;-73
2022/09/11 08:13:33;;;;;;;;;;;29.40;91.70;;;;;;4899809;29;19915;-73
2022/09/11 08:15:59;;;;;;;;;;;29.40;90.70;;;;;;4914997;29;19946;-73
2022/09/11 08:18:25;;;;;;;;;;;29.20;91.30;;;;;;4911120;29;19927;-73
2022/09/11 08:20:50;;;;;;;;;;;29.40;90.90;;;;;;4913596;29;19987;-73
2022/09/11 08:23:16;;;;;;;;;;;29.50;90.50;;;;;;4912131;29;19927;-73
2022/09/11 08:25:42;;;;;;;;;;;29.20;87.80;;;;;;4912147;29;19958;-73
2022/09/11 08:28:08;;;;;;;;;;;28.90;91.30;;;;;;4919582;29;19962;-72
2022/09/11 08:30:37;;;;;;;;;;;29.30;90.60;;;;;;4918845;29;19966;-73
2022/09/11 08:33:04;;;;;;;;;;;30.00;89.00;;;;;;4918884;29;19922;-73
2022/09/11 08:35:32;;;;;;;;;;;30.90;86.10;;;;;;4918110;29;20002;-73
2022/09/11 08:37:58;;;;;;;;;;;31.60;86.20;;;;;;4912191;29;20095;-73
2022/09/11 08:40:24;;;;;;;;;;;31.90;84.90;;;;;;4905205;29;20359;-73
2022/09/11 08:42:51;;;;;;;;;;;31.70;83.70;;;;;;4921781;29;19918;-74
2022/09/11 08:45:18;;;;;;;;;;;31.00;85.40;;;;;;4923286;29;20484;-73
2022/09/11 08:47:47;;;;;;;;;;;30.80;85.90;;;;;;4920946;29;20399;-73
2022/09/11 08:50:24;;;;;;;;;;;30.40;86.20;;;;;;4922972;29;19930;-73
2022/09/11 08:52:50;;;;;;;;;;;30.10;89.50;;;;;;4919635;29;19958;-73
2022/09/11 08:55:23;;;;;;;;;;;30.60;88.60;;;;;;4921286;29;19954;-73
2022/09/11 08:58:03;;;;;;;;;;;31.00;83.70;;;;;;4906959;29;20341;-73
2022/09/11 09:00:39;;;;;;;;;;;31.10;83.30;;;;;;4908130;29;19919;-73
2022/09/11 09:03:07;;;;;;;;;;;31.10;86.20;;;;;;4920782;29;20433;-73
2022/09/11 09:05:36;;;;;;;;;;;31.50;84.90;;;;;;4918726;29;20395;-73
2022/09/11 09:08:12;;;;;;;;;;;31.40;84.10;;;;;;4916552;29;20347;-73
2022/09/11 09:10:43;;;;;;;;;;;31.00;81.50;;;;;;4903313;29;19927;-71
2022/09/11 09:13:15;;;;;;;;;;;30.60;83.00;;;;;;4905645;29;20440;-73
2022/09/11 09:15:44;;;;;;;;;;;31.10;86.70;;;;;;4905893;29;19925;-72
2022/09/11 09:18:28;;;;;;;;;;;31.60;85.40;;;;;;4919538;29;19919;-73
2022/09/11 09:21:05;;;;;;;;;;;32.10;82.00;;;;;;4904365;29;19961;-72
2022/09/11 09:23:35;;;;;;;;;;;32.50;80.00;;;;;;4920783;29;19954;-72
2022/09/11 09:26:00;;;;;;;;;;;32.40;79.40;;;;;;4918114;29;19923;-71
2022/09/11 09:28:37;;;;;;;;;;;32.70;81.10;;;;;;4920657;29;19919;-72
2022/09/11 09:31:05;;;;;;;;;;;32.80;79.20;;;;;;4916940;29;20649;-72
2022/09/11 09:33:37;;;;;;;;;;;32.90;79.80;;;;;;4922129;29;19929;-73
2022/09/11 09:36:22;;;;;;;;;;;33.20;76.40;;;;;;4916504;29;19981;-72
2022/09/11 09:38:48;;;;;;;;;;;33.40;75.70;;;;;;4909960;29;20647;-72
2022/09/11 09:41:38;;;;;;;;;;;33.10;76.20;;;;;;4915722;29;20541;-72
2022/09/11 09:44:17;;;;;;;;;;;33.20;74.60;;;;;;4921344;29;19918;-73
2022/09/11 09:46:44;;;;;;;;;;;32.80;79.30;;;;;;4918769;29;20368;-72
2022/09/11 09:49:10;;;;;;;;;;;33.40;74.80;;;;;;4913994;29;19938;-71
2022/09/11 09:51:38;;;;;;;;;;;33.50;71.70;;;;;;4916522;29;19981;-72
2022/09/11 09:54:04;;;;;;;;;;;33.30;71.00;;;;;;4912507;29;20357;-72
2022/09/11 09:56:32;;;;;;;;;;;32.40;72.70;;;;;;4914051;29;20350;-72
2022/09/11 09:59:11;;;;;;;;;;;30.40;78.10;;;;;;4893223;29;19965;-71
2022/09/11 10:01:45;;;;;;;;;;;28.20;91.20;;;;;;4900423;29;19970;-72
2022/09/11 10:04:14;;;;;;;;;;;26.20;98.90;;;;;;4920227;29;20024;-72
2022/09/11 10:06:39;;;;;;;;;;;25.40;99.90;;;;;;4915456;29;19918;-74
2022/09/11 10:09:16;;;;;;;;;;;25.10;99.90;;;;;;4898321;29;19990;-74
2022/09/11 10:11:42;;;;;;;;;;;24.80;99.90;;;;;;4914164;29;19931;-74
2022/09/11 10:14:14;;;;;;;;;;;24.60;99.90;;;;;;4908466;29;20033;-73
2022/09/11 10:16:39;;;;;;;;;;;24.20;99.90;;;;;;4911094;29;20096;-73
2022/09/11 10:19:25;;;;;;;;;;;23.80;99.90;;;;;;4908355;29;20037;-74
2022/09/11 10:21:51;;;;;;;;;;;23.40;99.90;;;;;;4896061;29;19929;-74
2022/09/11 10:24:16;;;;;;;;;;;23.50;99.90;;;;;;4907804;29;19918;-73
2022/09/11 10:26:48;;;;;;;;;;;25.30;99.90;;;;;;4917906;29;19919;-73
2022/09/11 10:29:20;;;;;;;;;;;27.40;99.90;;;;;;4918542;29;20412;-73
2022/09/11 10:31:50;;;;;;;;;;;29.00;95.40;;;;;;4917695;29;19933;-72
2022/09/11 10:34:18;;;;;;;;;;;30.70;89.90;;;;;;4920312;29;19947;-74
2022/09/11 10:36:54;;;;;;;;;;;31.30;85.10;;;;;;4923851;29;19919;-73
2022/09/11 10:39:20;;;;;;;;;;;32.30;85.00;;;;;;4916705;29;20181;-73
2022/09/11 10:41:47;;;;;;;;;;;32.40;84.50;;;;;;4918475;29;20477;-74
2022/09/11 10:44:14;;;;;;;;;;;33.10;78.80;;;;;;4920516;29;20022;-74
2022/09/11 10:46:44;;;;;;;;;;;33.80;75.50;;;;;;4910181;29;20675;-74
2022/09/11 10:49:10;;;;;;;;;;;34.50;71.50;;;;;;4902736;29;19922;-74
2022/09/11 10:51:39;;;;;;;;;;;34.20;68.10;;;;;;4918886;29;20319;-74
2022/09/11 10:54:05;;;;;;;;;;;33.90;73.20;;;;;;4919291;29;19911;-73
2022/09/11 10:56:33;;;;;;;;;;;33.10;71.00;;;;;;4900474;29;20296;-73
2022/09/11 10:59:02;;;;;;;;;;;32.70;70.80;;;;;;4918529;29;19919;-74
2022/09/11 11:01:27;;;;;;;;;;;32.50;69.90;;;;;;4912510;29;20346;-74
2022/09/11 11:03:54;;;;;;;;;;;31.00;69.90;;;;;;4917524;29;19925;-73
2022/09/11 11:06:32;;;;;;;;;;;30.40;80.40;;;;;;4915664;29;19949;-74
2022/09/11 11:08:58;;;;;;;;;;;31.10;77.60;;;;;;4916330;29;19929;-74
2022/09/11 11:11:33;;;;;;;;;;;32.50;73.90;;;;;;4917819;29;20359;-73
2022/09/11 11:14:12;;;;;;;;;;;32.10;73.30;;;;;;4899726;29;19919;-73
2022/09/11 11:16:56;;;;;;;;;;;30.20;70.70;;;;;;4915712;29;20545;-73
2022/09/11 11:19:25;;;;;;;;;;;28.50;79.10;;;;;;4913463;29;20002;-74
2022/09/11 11:22:02;;;;;;;;;;;27.50;85.00;;;;;;4917570;29;19942;-74
2022/09/11 11:24:31;;;;;;;;;;;28.10;93.50;;;;;;4918895;29;19918;-73
2022/09/11 11:27:03;;;;;;;;;;;28.50;90.80;;;;;;4920346;29;19918;-74
2022/09/11 11:29:49;;;;;;;;;;;28.30;90.80;;;;;;4918534;29;19918;-72
2022/09/11 11:32:21;;;;;;;;;;;28.20;94.40;;;;;;4917552;29;20381;-74
2022/09/11 11:35:05;;;;;;;;;;;28.40;92.80;;;;;;4923049;29;19959;-74
2022/09/11 11:37:33;;;;;;;;;;;28.40;87.70;;;;;;4922150;29;20025;-73
2022/09/11 11:40:05;;;;;;;;;;;27.90;96.10;;;;;;4907900;29;20458;-74
2022/09/11 11:42:38;;;;;;;;;;;27.80;96.50;;;;;;4896823;29;19918;-73
2022/09/11 11:45:08;;;;;;;;;;;27.80;94.80;;;;;;4922359;29;20020;-74
2022/09/11 11:47:42;;;;;;;;;;;28.00;94.90;;;;;;4899773;29;19919;-73
2022/09/11 11:50:31;;;;;;;;;;;28.20;95.50;;;;;;4904688;29;19927;-74
2022/09/11 11:53:05;;;;;;;;;;;28.30;89.00;;;;;;4926428;29;19990;-74
2022/09/11 11:55:38;;;;;;;;;;;28.20;95.00;;;;;;4906212;29;19915;-73
2022/09/11 11:58:23;;;;;;;;;;;28.40;96.80;;;;;;4917729;29;19918;-74
2022/09/11 12:00:55;;;;;;;;;;;28.30;87.00;;;;;;4909873;29;19919;-73
2022/09/11 12:03:39;;;;;;;;;;;28.20;97.90;;;;;;4903813;29;20014;-74
2022/09/11 12:06:06;;;;;;;;;;;28.10;92.60;;;;;;4920348;29;19926;-73
2022/09/11 12:08:36;;;;;;;;;;;27.70;93.00;;;;;;4919629;29;19919;-73
2022/09/11 12:11:05;;;;;;;;;;;27.70;99.90;;;;;;4896309;29;19930;-74
2022/09/11 12:13:33;;;;;;;;;;;27.60;93.00;;;;;;4896543;29;19916;-73
2022/09/11 12:16:10;;;;;;;;;;;27.40;93.70;;;;;;4920126;29;19926;-73
2022/09/11 12:18:37;;;;;;;;;;;26.90;94.00;;;;;;4918838;29;19918;-73
2022/09/11 12:21:21;;;;;;;;;;;26.80;98.40;;;;;;4919932;29;19922;-74
2022/09/11 12:23:46;;;;;;;;;;;26.20;94.10;;;;;;4917796;29;20021;-73
2022/09/11 12:26:30;;;;;;;;;;;25.60;99.90;;;;;;4920465;29;20001;-73
2022/09/11 12:29:14;;;;;;;;;;;25.20;99.90;;;;;;4902215;29;20464;-74
2022/09/11 12:31:49;;;;;;;;;;;25.30;99.90;;;;;;4902685;29;20074;-73
2022/09/11 12:34:18;;;;;;;;;;;25.30;99.70;;;;;;4891540;29;20022;-74
2022/09/11 12:36:43;;;;;;;;;;;25.30;99.90;;;;;;4885744;29;20010;-73
2022/09/11 12:39:21;;;;;;;;;;;25.50;97.60;;;;;;4900028;29;20017;-73
2022/09/11 12:41:47;;;;;;;;;;;25.50;97.80;;;;;;4917073;29;19989;-73
2022/09/11 12:44:51;;;;;;;;;;;25.20;99.00;;;;;;4920730;29;19954;-72
2022/09/11 12:47:26;;;;;;;;;;;25.10;99.90;;;;;;4900113;29;19915;-72
2022/09/11 12:50:00;;;;;;;;;;;24.80;99.90;;;;;;4911695;29;20382;-73
2022/09/11 12:52:39;;;;;;;;;;;24.90;99.90;;;;;;4913326;29;19974;-72
2022/09/11 12:55:24;;;;;;;;;;;25.10;99.90;;;;;;4902244;29;20383;-71
2022/09/11 12:57:50;;;;;;;;;;;25.30;99.90;;;;;;4918690;29;19961;-72
2022/09/11 13:00:27;;;;;;;;;;;25.50;99.90;;;;;;4908870;29;20252;-72
2022/09/11 13:02:55;;;;;;;;;;;25.60;99.30;;;;;;4884426;29;19919;-73
2022/09/11 13:05:26;;;;;;;;;;;25.60;96.50;;;;;;4915254;29;19942;-73
2022/09/11 13:07:54;;;;;;;;;;;25.70;99.90;;;;;;4917329;29;19929;-72
2022/09/11 13:10:37;;;;;;;;;;;25.40;96.80;;;;;;4923022;29;19922;-73
2022/09/11 13:13:25;;;;;;;;;;;25.20;98.00;;;;;;4900789;29;20450;-73
2022/09/11 13:15:55;;;;;;;;;;;25.20;97.60;;;;;;4919826;29;20013;-73
2022/09/11 13:18:33;;;;;;;;;;;25.30;99.90;;;;;;4918434;29;19977;-73
2022/09/11 13:21:17;;;;;;;;;;;25.40;99.90;;;;;;4920047;29;20254;-72
2022/09/11 13:23:45;;;;;;;;;;;25.20;98.30;;;;;;4916718;29;19919;-73
2022/09/11 13:26:19;;;;;;;;;;;24.90;99.90;;;;;;4916078;29;19923;-73
2022/09/11 13:28:46;;;;;;;;;;;24.70;99.90;;;;;;4921123;29;20607;-72
2022/09/11 13:31:20;;;;;;;;;;;24.50;99.90;;;;;;4916530;29;19927;-73
2022/09/11 13:33:48;;;;;;;;;;;24.40;99.90;;;;;;4897118;29;19918;-72
2022/09/11 13:36:14;;;;;;;;;;;24.40;99.90;;;;;;4926079;29;20077;-72
2022/09/11 13:38:41;;;;;;;;;;;24.30;99.90;;;;;;4924630;29;19934;-73
2022/09/11 13:41:11;;;;;;;;;;;24.20;99.90;;;;;;4918897;29;20013;-72
2022/09/11 13:43:39;;;;;;;;;;;24.30;99.90;;;;;;4919712;29;20001;-73
2022/09/11 13:46:25;;;;;;;;;;;24.30;99.90;;;;;;4916801;29;19918;-71
2022/09/11 13:48:55;;;;;;;;;;;24.20;99.90;;;;;;4896049;29;19919;-73
2022/09/11 13:51:23;;;;;;;;;;;24.00;99.90;;;;;;4913111;29;20009;-72
2022/09/11 13:53:57;;;;;;;;;;;23.60;99.90;;;;;;4914780;29;19918;-72
2022/09/11 13:56:40;;;;;;;;;;;23.00;99.90;;;;;;4915755;29;20358;-72
2022/09/11 13:59:24;;;;;;;;;;;22.70;99.90;;;;;;4921261;29;19998;-72
2022/09/11 14:01:54;;;;;;;;;;;23.00;99.90;;;;;;4900832;29;19975;-72
2022/09/11 14:04:20;;;;;;;;;;;23.60;99.90;;;;;;4913963;29;19967;-72
2022/09/11 14:06:46;;;;;;;;;;;24.30;99.90;;;;;;4919692;29;20291;-72
2022/09/11 14:09:17;;;;;;;;;;;24.80;99.90;;;;;;4898531;29;19978;-72
2022/09/11 14:11:43;;;;;;;;;;;25.00;99.90;;;;;;4918231;29;19927;-72
2022/09/11 14:14:10;;;;;;;;;;;25.00;97.90;;;;;;4899311;29;20406;-72
2022/09/11 14:16:47;;;;;;;;;;;24.70;99.90;;;;;;4918580;29;20541;-72
2022/09/11 14:19:13;;;;;;;;;;;24.40;99.90;;;;;;4914323;29;19930;-72
2022/09/11 14:21:40;;;;;;;;;;;24.30;99.90;;;;;;4915151;29;19919;-72
2022/09/11 14:24:23;;;;;;;;;;;23.90;99.90;;;;;;4912249;29;19919;-72
2022/09/11 14:26:49;;;;;;;;;;;23.80;99.90;;;;;;4917542;29;20408;-73
2022/09/11 14:29:24;;;;;;;;;;;23.90;99.90;;;;;;4917569;29;19933;-73